sensor_id;sensor_type;location;lat;lon;timestamp;pressure;altitude;pressure_sealevel;temperature;humidity
77288;BME280;66345;42.694;23.346;2024-01-30T00:02:09;97533.50;;;0.01;61.56
77288;BME280;66345;42.694;23.346;2024-01-30T00:04:35;97533.34;;;0.04;61.24
77288;BME280;66345;42.694;23.346;2024-01-30T00:07:00;97537.91;;;0.00;61.76
77288;BME280;66345;42.694;23.346;2024-01-30T00:09:25;97540.00;;;-0.08;61.68
77288;BME280;66345;42.694;23.346;2024-01-30T00:11:51;97535.50;;;-0.05;61.93
77288;BME280;66345;42.694;23.346;2024-01-30T00:14:16;97536.25;;;-0.03;61.85
77288;BME280;66345;42.694;23.346;2024-01-30T00:16:42;97533.94;;;-0.09;62.11
77288;BME280;66345;42.694;23.346;2024-01-30T00:19:08;97531.56;;;-0.13;61.52
77288;BME280;66345;42.694;23.346;2024-01-30T00:21:33;97534.00;;;-0.10;61.36
77288;BME280;66345;42.694;23.346;2024-01-30T00:23:59;97527.78;;;-0.08;61.45
77288;BME280;66345;42.694;23.346;2024-01-30T00:26:25;97534.00;;;-0.10;61.22
77288;BME280;66345;42.694;23.346;2024-01-30T00:28:50;97536.28;;;-0.21;61.78
77288;BME280;66345;42.694;23.346;2024-01-30T00:31:16;97537.25;;;-0.05;61.30
77288;BME280;66345;42.694;23.346;2024-01-30T00:33:42;97538.47;;;-0.12;60.97
77288;BME280;66345;42.694;23.346;2024-01-30T00:36:09;97539.41;;;0.04;61.08
77288;BME280;66345;42.694;23.346;2024-01-30T00:38:35;97543.25;;;-0.03;61.05
77288;BME280;66345;42.694;23.346;2024-01-30T00:41:00;97537.72;;;0.03;60.77
77288;BME280;66345;42.694;23.346;2024-01-30T00:43:27;97539.25;;;0.07;60.32
77288;BME280;66345;42.694;23.346;2024-01-30T00:45:53;97536.13;;;0.01;60.28
77288;BME280;66345;42.694;23.346;2024-01-30T00:48:19;97528.31;;;-0.18;60.53
77288;BME280;66345;42.694;23.346;2024-01-30T00:50:44;97530.72;;;-0.14;60.49
77288;BME280;66345;42.694;23.346;2024-01-30T00:53:10;97544.38;;;-0.09;60.67
77288;BME280;66345;42.694;23.346;2024-01-30T00:55:36;97537.78;;;-0.35;60.87
77288;BME280;66345;42.694;23.346;2024-01-30T00:58:02;97541.44;;;-0.39;60.91
77288;BME280;66345;42.694;23.346;2024-01-30T01:00:28;97528.09;;;-0.33;61.25
77288;BME280;66345;42.694;23.346;2024-01-30T01:03:01;97541.91;;;-0.31;61.25
77288;BME280;66345;42.694;23.346;2024-01-30T01:05:26;97537.69;;;-0.14;60.76
77288;BME280;66345;42.694;23.346;2024-01-30T01:07:52;97527.88;;;-0.09;61.27
77288;BME280;66345;42.694;23.346;2024-01-30T01:10:17;97533.66;;;0.15;61.55
77288;BME280;66345;42.694;23.346;2024-01-30T01:12:43;97529.47;;;0.12;61.29
77288;BME280;66345;42.694;23.346;2024-01-30T01:15:09;97538.81;;;-0.20;62.26
77288;BME280;66345;42.694;23.346;2024-01-30T01:17:38;97536.00;;;-0.34;62.41
77288;BME280;66345;42.694;23.346;2024-01-30T01:20:05;97545.03;;;-0.41;62.92
77288;BME280;66345;42.694;23.346;2024-01-30T01:22:31;97541.84;;;-0.48;61.76
77288;BME280;66345;42.694;23.346;2024-01-30T01:24:57;97538.97;;;-0.42;61.95
77288;BME280;66345;42.694;23.346;2024-01-30T01:27:23;97539.94;;;-0.25;61.81
77288;BME280;66345;42.694;23.346;2024-01-30T01:29:49;97533.56;;;-0.37;61.83
77288;BME280;66345;42.694;23.346;2024-01-30T01:32:14;97534.78;;;-0.46;62.11
77288;BME280;66345;42.694;23.346;2024-01-30T01:34:40;97537.28;;;-0.43;61.81
77288;BME280;66345;42.694;23.346;2024-01-30T01:37:05;97551.09;;;-0.41;61.74
77288;BME280;66345;42.694;23.346;2024-01-30T01:39:32;97545.44;;;-0.32;61.90
77288;BME280;66345;42.694;23.346;2024-01-30T01:41:58;97543.69;;;-0.50;61.94
77288;BME280;66345;42.694;23.346;2024-01-30T01:44:23;97546.94;;;-0.45;61.68
77288;BME280;66345;42.694;23.346;2024-01-30T01:46:49;97545.09;;;-0.43;62.58
77288;BME280;66345;42.694;23.346;2024-01-30T01:49:15;97525.91;;;-0.61;62.68
77288;BME280;66345;42.694;23.346;2024-01-30T01:51:41;97524.47;;;-0.66;62.53
77288;BME280;66345;42.694;23.346;2024-01-30T01:54:07;97540.94;;;-0.47;62.54
77288;BME280;66345;42.694;23.346;2024-01-30T01:56:34;97539.59;;;-0.56;62.47
77288;BME280;66345;42.694;23.346;2024-01-30T01:59:05;97542.13;;;-0.54;62.68
77288;BME280;66345;42.694;23.346;2024-01-30T02:01:32;97548.47;;;-0.41;62.39
77288;BME280;66345;42.694;23.346;2024-01-30T02:03:59;97551.09;;;-0.41;62.45
77288;BME280;66345;42.694;23.346;2024-01-30T02:06:25;97541.56;;;-0.42;62.90
77288;BME280;66345;42.694;23.346;2024-01-30T02:08:51;97539.81;;;-0.41;62.71
77288;BME280;66345;42.694;23.346;2024-01-30T02:11:17;97547.22;;;-0.32;62.32
77288;BME280;66345;42.694;23.346;2024-01-30T02:13:43;97542.28;;;-0.38;62.31
77288;BME280;66345;42.694;23.346;2024-01-30T02:16:08;97537.63;;;-0.32;62.26
77288;BME280;66345;42.694;23.346;2024-01-30T02:18:34;97546.50;;;-0.17;61.91
77288;BME280;66345;42.694;23.346;2024-01-30T02:21:04;97546.56;;;-0.18;61.56
77288;BME280;66345;42.694;23.346;2024-01-30T02:23:30;97539.81;;;-0.22;61.07
77288;BME280;66345;42.694;23.346;2024-01-30T02:25:56;97545.72;;;-0.19;60.60
77288;BME280;66345;42.694;23.346;2024-01-30T02:28:21;97540.72;;;-0.23;60.77
77288;BME280;66345;42.694;23.346;2024-01-30T02:30:47;97532.56;;;-0.35;60.82
77288;BME280;66345;42.694;23.346;2024-01-30T02:33:13;97528.75;;;-0.28;60.92
77288;BME280;66345;42.694;23.346;2024-01-30T02:35:38;97533.81;;;-0.24;60.43
77288;BME280;66345;42.694;23.346;2024-01-30T02:38:04;97538.94;;;-0.04;59.56
77288;BME280;66345;42.694;23.346;2024-01-30T02:40:31;97540.72;;;-0.05;59.78
77288;BME280;66345;42.694;23.346;2024-01-30T02:42:58;97537.53;;;-0.11;60.51
77288;BME280;66345;42.694;23.346;2024-01-30T02:45:24;97546.13;;;-0.09;60.31
77288;BME280;66345;42.694;23.346;2024-01-30T02:47:49;97537.38;;;-0.08;60.03
77288;BME280;66345;42.694;23.346;2024-01-30T02:50:15;97535.41;;;-0.03;59.25
77288;BME280;66345;42.694;23.346;2024-01-30T02:52:41;97540.44;;;-0.17;60.44
77288;BME280;66345;42.694;23.346;2024-01-30T02:55:09;97536.41;;;-0.06;59.65
77288;BME280;66345;42.694;23.346;2024-01-30T02:57:35;97550.94;;;0.00;59.47
77288;BME280;66345;42.694;23.346;2024-01-30T03:00:01;97545.41;;;0.06;59.17
77288;BME280;66345;42.694;23.346;2024-01-30T03:02:26;97536.72;;;0.06;59.20
77288;BME280;66345;42.694;23.346;2024-01-30T03:04:51;97542.75;;;-0.11;59.49
77288;BME280;66345;42.694;23.346;2024-01-30T03:07:17;97544.84;;;-0.01;59.16
77288;BME280;66345;42.694;23.346;2024-01-30T03:09:43;97545.44;;;-0.13;59.37
77288;BME280;66345;42.694;23.346;2024-01-30T03:12:09;97532.41;;;-0.13;59.85
77288;BME280;66345;42.694;23.346;2024-01-30T03:14:34;97546.97;;;-0.09;60.36
77288;BME280;66345;42.694;23.346;2024-01-30T03:17:00;97529.22;;;-0.19;60.00
77288;BME280;66345;42.694;23.346;2024-01-30T03:19:25;97538.75;;;0.01;59.34
77288;BME280;66345;42.694;23.346;2024-01-30T03:21:51;97525.50;;;-0.14;59.00
77288;BME280;66345;42.694;23.346;2024-01-30T03:24:17;97543.78;;;0.04;59.09
77288;BME280;66345;42.694;23.346;2024-01-30T03:26:43;97526.44;;;0.03;58.08
77288;BME280;66345;42.694;23.346;2024-01-30T03:29:08;97539.50;;;0.03;58.42
77288;BME280;66345;42.694;23.346;2024-01-30T03:31:34;97532.81;;;-0.03;58.25
77288;BME280;66345;42.694;23.346;2024-01-30T03:34:00;97519.91;;;-0.06;58.31
77288;BME280;66345;42.694;23.346;2024-01-30T03:36:26;97526.75;;;-0.04;57.22
77288;BME280;66345;42.694;23.346;2024-01-30T03:38:51;97522.38;;;-0.03;57.30
77288;BME280;66345;42.694;23.346;2024-01-30T03:41:17;97514.91;;;-0.11;57.92
77288;BME280;66345;42.694;23.346;2024-01-30T03:43:42;97515.63;;;-0.07;57.61
77288;BME280;66345;42.694;23.346;2024-01-30T03:46:08;97522.28;;;-0.02;57.97
77288;BME280;66345;42.694;23.346;2024-01-30T03:48:33;97513.31;;;0.04;57.75
77288;BME280;66345;42.694;23.346;2024-01-30T03:50:59;97516.69;;;0.06;57.87
77288;BME280;66345;42.694;23.346;2024-01-30T03:53:25;97517.13;;;0.16;57.19
77288;BME280;66345;42.694;23.346;2024-01-30T03:55:50;97520.03;;;0.10;57.66
77288;BME280;66345;42.694;23.346;2024-01-30T03:58:16;97514.72;;;0.11;56.99
77288;BME280;66345;42.694;23.346;2024-01-30T04:00:41;97521.69;;;0.11;57.59
77288;BME280;66345;42.694;23.346;2024-01-30T04:03:07;97509.31;;;-0.03;57.65
77288;BME280;66345;42.694;23.346;2024-01-30T04:05:33;97520.47;;;-0.18;58.24
77288;BME280;66345;42.694;23.346;2024-01-30T04:07:59;97504.84;;;-0.18;58.40
77288;BME280;66345;42.694;23.346;2024-01-30T04:10:24;97510.53;;;-0.10;58.28
77288;BME280;66345;42.694;23.346;2024-01-30T04:12:50;97508.72;;;-0.27;57.77
77288;BME280;66345;42.694;23.346;2024-01-30T04:15:17;97503.50;;;-0.27;58.37
77288;BME280;66345;42.694;23.346;2024-01-30T04:17:43;97520.34;;;-0.34;58.90
77288;BME280;66345;42.694;23.346;2024-01-30T04:20:13;97517.03;;;-0.19;58.53
77288;BME280;66345;42.694;23.346;2024-01-30T04:22:39;97518.06;;;-0.23;58.92
77288;BME280;66345;42.694;23.346;2024-01-30T04:25:05;97506.63;;;-0.38;59.73
77288;BME280;66345;42.694;23.346;2024-01-30T04:27:30;97520.72;;;-0.42;59.36
77288;BME280;66345;42.694;23.346;2024-01-30T04:29:56;97526.22;;;-0.29;59.54
77288;BME280;66345;42.694;23.346;2024-01-30T04:32:21;97515.78;;;-0.29;59.42
77288;BME280;66345;42.694;23.346;2024-01-30T04:34:47;97519.59;;;-0.36;58.88
77288;BME280;66345;42.694;23.346;2024-01-30T04:37:12;97510.16;;;-0.58;60.27
77288;BME280;66345;42.694;23.346;2024-01-30T04:39:38;97514.72;;;-0.44;59.30
77288;BME280;66345;42.694;23.346;2024-01-30T04:42:03;97529.31;;;-0.40;60.25
77288;BME280;66345;42.694;23.346;2024-01-30T04:44:30;97530.09;;;-0.38;60.18
77288;BME280;66345;42.694;23.346;2024-01-30T04:46:56;97522.47;;;-0.42;58.42
77288;BME280;66345;42.694;23.346;2024-01-30T04:49:24;97539.41;;;-0.51;59.88
77288;BME280;66345;42.694;23.346;2024-01-30T04:51:49;97532.28;;;-0.66;60.99
77288;BME280;66345;42.694;23.346;2024-01-30T04:54:15;97552.41;;;-0.70;60.98
77288;BME280;66345;42.694;23.346;2024-01-30T04:56:40;97552.66;;;-0.76;61.40
77288;BME280;66345;42.694;23.346;2024-01-30T04:59:06;97551.13;;;-0.80;62.10
77288;BME280;66345;42.694;23.346;2024-01-30T05:01:34;97558.03;;;-0.79;61.93
77288;BME280;66345;42.694;23.346;2024-01-30T05:04:00;97562.06;;;-0.72;62.09
77288;BME280;66345;42.694;23.346;2024-01-30T05:06:28;97553.25;;;-0.69;60.06
77288;BME280;66345;42.694;23.346;2024-01-30T05:08:54;97551.47;;;-0.69;60.73
77288;BME280;66345;42.694;23.346;2024-01-30T05:11:19;97565.78;;;-0.77;60.74
77288;BME280;66345;42.694;23.346;2024-01-30T05:13:45;97552.06;;;-0.81;61.12
77288;BME280;66345;42.694;23.346;2024-01-30T05:16:10;97552.97;;;-0.63;60.65
77288;BME280;66345;42.694;23.346;2024-01-30T05:18:36;97551.13;;;-0.61;60.15
77288;BME280;66345;42.694;23.346;2024-01-30T05:21:02;97555.38;;;-0.59;60.54
77288;BME280;66345;42.694;23.346;2024-01-30T05:23:28;97560.44;;;-0.74;61.10
77288;BME280;66345;42.694;23.346;2024-01-30T05:25:53;97565.38;;;-0.68;60.30
77288;BME280;66345;42.694;23.346;2024-01-30T05:28:19;97555.81;;;-0.68;60.66
77288;BME280;66345;42.694;23.346;2024-01-30T05:30:44;97561.06;;;-0.69;60.96
77288;BME280;66345;42.694;23.346;2024-01-30T05:33:10;97555.59;;;-0.63;60.57
77288;BME280;66345;42.694;23.346;2024-01-30T05:35:37;97547.91;;;-0.66;59.85
77288;BME280;66345;42.694;23.346;2024-01-30T05:38:03;97563.28;;;-0.60;59.75
77288;BME280;66345;42.694;23.346;2024-01-30T05:40:28;97565.94;;;-0.80;60.22
77288;BME280;66345;42.694;23.346;2024-01-30T05:42:54;97571.31;;;-0.65;60.26
77288;BME280;66345;42.694;23.346;2024-01-30T05:45:21;97563.69;;;-0.69;59.61
77288;BME280;66345;42.694;23.346;2024-01-30T05:47:48;97559.25;;;-0.67;60.48
77288;BME280;66345;42.694;23.346;2024-01-30T05:50:15;97557.38;;;-0.84;59.83
77288;BME280;66345;42.694;23.346;2024-01-30T05:52:40;97554.72;;;-0.82;60.95
77288;BME280;66345;42.694;23.346;2024-01-30T05:55:09;97555.53;;;-1.01;60.26
77288;BME280;66345;42.694;23.346;2024-01-30T05:57:35;97560.72;;;-1.01;59.76
77288;BME280;66345;42.694;23.346;2024-01-30T06:00:03;97560.91;;;-0.85;59.26
77288;BME280;66345;42.694;23.346;2024-01-30T06:02:29;97562.22;;;-0.95;59.65
77288;BME280;66345;42.694;23.346;2024-01-30T06:04:55;97563.69;;;-0.69;59.62
77288;BME280;66345;42.694;23.346;2024-01-30T06:07:21;97562.91;;;-0.71;59.38
77288;BME280;66345;42.694;23.346;2024-01-30T06:09:47;97568.31;;;-0.76;59.41
77288;BME280;66345;42.694;23.346;2024-01-30T06:12:12;97563.59;;;-0.87;59.82
77288;BME280;66345;42.694;23.346;2024-01-30T06:14:38;97573.34;;;-0.71;59.48
77288;BME280;66345;42.694;23.346;2024-01-30T06:17:04;97564.13;;;-0.60;58.69
77288;BME280;66345;42.694;23.346;2024-01-30T06:19:30;97561.66;;;-0.63;58.76
77288;BME280;66345;42.694;23.346;2024-01-30T06:21:58;97556.00;;;-0.53;59.02
77288;BME280;66345;42.694;23.346;2024-01-30T06:24:24;97579.78;;;-0.60;59.81
77288;BME280;66345;42.694;23.346;2024-01-30T06:26:49;97571.88;;;-0.58;59.55
77288;BME280;66345;42.694;23.346;2024-01-30T06:29:16;97549.03;;;-0.53;59.54
77288;BME280;66345;42.694;23.346;2024-01-30T06:31:42;97576.25;;;-0.59;59.10
77288;BME280;66345;42.694;23.346;2024-01-30T06:34:08;97569.84;;;-0.51;57.07
77288;BME280;66345;42.694;23.346;2024-01-30T06:36:34;97553.28;;;-0.50;56.40
77288;BME280;66345;42.694;23.346;2024-01-30T06:39:00;97556.53;;;-0.45;56.45
77288;BME280;66345;42.694;23.346;2024-01-30T06:41:25;97556.31;;;-0.41;55.93
77288;BME280;66345;42.694;23.346;2024-01-30T06:43:51;97566.94;;;-0.26;56.12
77288;BME280;66345;42.694;23.346;2024-01-30T06:46:17;97570.41;;;-0.07;55.09
77288;BME280;66345;42.694;23.346;2024-01-30T06:48:42;97561.09;;;-0.32;56.36
77288;BME280;66345;42.694;23.346;2024-01-30T06:51:10;97567.53;;;-0.20;55.25
77288;BME280;66345;42.694;23.346;2024-01-30T06:53:36;97564.00;;;-0.19;56.81
77288;BME280;66345;42.694;23.346;2024-01-30T06:56:02;97574.72;;;-0.06;56.40
77288;BME280;66345;42.694;23.346;2024-01-30T06:58:28;97582.38;;;0.16;56.67
77288;BME280;66345;42.694;23.346;2024-01-30T07:00:54;97581.91;;;0.08;56.32
77288;BME280;66345;42.694;23.346;2024-01-30T07:03:20;97584.56;;;0.06;55.54
77288;BME280;66345;42.694;23.346;2024-01-30T07:05:45;97574.09;;;0.06;56.75
77288;BME280;66345;42.694;23.346;2024-01-30T07:08:11;97579.34;;;0.06;56.66
77288;BME280;66345;42.694;23.346;2024-01-30T07:10:36;97568.94;;;-0.13;57.31
77288;BME280;66345;42.694;23.346;2024-01-30T07:13:02;97573.69;;;0.15;58.12
77288;BME280;66345;42.694;23.346;2024-01-30T07:15:29;97570.09;;;0.35;56.64
77288;BME280;66345;42.694;23.346;2024-01-30T07:17:54;97570.06;;;0.54;54.87
77288;BME280;66345;42.694;23.346;2024-01-30T07:20:20;97563.59;;;0.44;54.54
77288;BME280;66345;42.694;23.346;2024-01-30T07:22:46;97564.25;;;0.30;53.94
77288;BME280;66345;42.694;23.346;2024-01-30T07:25:12;97571.75;;;0.55;53.49
77288;BME280;66345;42.694;23.346;2024-01-30T07:27:38;97582.19;;;0.55;53.48
77288;BME280;66345;42.694;23.346;2024-01-30T07:30:03;97567.22;;;0.59;53.66
77288;BME280;66345;42.694;23.346;2024-01-30T07:32:32;97569.22;;;0.88;52.41
77288;BME280;66345;42.694;23.346;2024-01-30T07:35:03;97563.50;;;1.15;51.54
77288;BME280;66345;42.694;23.346;2024-01-30T07:37:29;97562.88;;;2.23;48.20
77288;BME280;66345;42.694;23.346;2024-01-30T07:39:54;97547.06;;;4.40;44.05
77288;BME280;66345;42.694;23.346;2024-01-30T07:42:20;97535.50;;;4.42;41.85
77288;BME280;66345;42.694;23.346;2024-01-30T07:44:45;97539.22;;;5.18;40.43
77288;BME280;66345;42.694;23.346;2024-01-30T07:47:11;97534.69;;;6.44;37.89
77288;BME280;66345;42.694;23.346;2024-01-30T07:49:36;97518.16;;;7.35;36.19
77288;BME280;66345;42.694;23.346;2024-01-30T07:52:06;97512.72;;;8.03;34.11
77288;BME280;66345;42.694;23.346;2024-01-30T07:54:32;97521.94;;;10.08;30.67
77288;BME280;66345;42.694;23.346;2024-01-30T07:57:00;97512.31;;;10.67;29.70
77288;BME280;66345;42.694;23.346;2024-01-30T07:59:25;97517.28;;;10.41;29.61
77288;BME280;66345;42.694;23.346;2024-01-30T08:01:51;97503.03;;;11.66;27.93
77288;BME280;66345;42.694;23.346;2024-01-30T08:04:16;97522.91;;;10.86;28.16
77288;BME280;66345;42.694;23.346;2024-01-30T08:06:42;97500.31;;;11.85;26.49
77288;BME280;66345;42.694;23.346;2024-01-30T08:09:08;97502.91;;;11.67;27.72
77288;BME280;66345;42.694;23.346;2024-01-30T08:11:34;97512.00;;;11.08;28.47
77288;BME280;66345;42.694;23.346;2024-01-30T08:13:59;97499.28;;;11.59;27.06
77288;BME280;66345;42.694;23.346;2024-01-30T08:16:25;97512.25;;;11.81;27.40
77288;BME280;66345;42.694;23.346;2024-01-30T08:18:56;97503.91;;;12.85;26.15
77288;BME280;66345;42.694;23.346;2024-01-30T08:21:23;97502.69;;;13.41;25.16
77288;BME280;66345;42.694;23.346;2024-01-30T08:23:48;97520.00;;;13.37;25.12
77288;BME280;66345;42.694;23.346;2024-01-30T08:26:14;97520.22;;;12.36;25.93
77288;BME280;66345;42.694;23.346;2024-01-30T08:28:39;97504.34;;;12.44;25.68
77288;BME280;66345;42.694;23.346;2024-01-30T08:31:05;97521.03;;;12.19;26.12
77288;BME280;66345;42.694;23.346;2024-01-30T08:33:30;97531.00;;;11.80;26.76
77288;BME280;66345;42.694;23.346;2024-01-30T08:35:56;97533.41;;;11.63;26.71
77288;BME280;66345;42.694;23.346;2024-01-30T08:38:21;97530.47;;;10.62;27.40
77288;BME280;66345;42.694;23.346;2024-01-30T08:40:49;97532.69;;;10.95;26.66
77288;BME280;66345;42.694;23.346;2024-01-30T08:43:14;97538.69;;;10.88;27.15
77288;BME280;66345;42.694;23.346;2024-01-30T08:45:40;97545.69;;;9.69;29.21
77288;BME280;66345;42.694;23.346;2024-01-30T08:48:06;97545.22;;;10.35;28.45
77288;BME280;66345;42.694;23.346;2024-01-30T08:50:33;97567.84;;;8.42;31.36
77288;BME280;66345;42.694;23.346;2024-01-30T08:52:58;97557.75;;;8.79;31.14
77288;BME280;66345;42.694;23.346;2024-01-30T08:55:24;97553.81;;;8.73;31.26
77288;BME280;66345;42.694;23.346;2024-01-30T08:57:49;97559.03;;;8.64;31.63
77288;BME280;66345;42.694;23.346;2024-01-30T09:00:15;97546.66;;;9.68;30.05
77288;BME280;66345;42.694;23.346;2024-01-30T09:02:43;97542.38;;;9.56;30.71
77288;BME280;66345;42.694;23.346;2024-01-30T09:05:09;97553.31;;;8.47;31.73
77288;BME280;66345;42.694;23.346;2024-01-30T09:14:43;97573.59;;;4.77;39.46
77288;BME280;66345;42.694;23.346;2024-01-30T09:20:35;97581.84;;;4.31;42.30
77288;BME280;66345;42.694;23.346;2024-01-30T09:27:13;97568.47;;;3.93;43.81
77288;BME280;66345;42.694;23.346;2024-01-30T09:50:49;97553.25;;;3.28;46.05
77288;BME280;66345;42.694;23.346;2024-01-30T09:53:08;97562.59;;;3.18;45.63
77288;BME280;66345;42.694;23.346;2024-01-30T09:55:38;97544.63;;;3.26;46.12
77288;BME280;66345;42.694;23.346;2024-01-30T09:58:08;97546.84;;;3.32;45.53
77288;BME280;66345;42.694;23.346;2024-01-30T10:00:33;97539.72;;;3.62;44.90
77288;BME280;66345;42.694;23.346;2024-01-30T10:02:59;97549.28;;;4.19;44.45
77288;BME280;66345;42.694;23.346;2024-01-30T10:05:27;97533.88;;;4.54;42.51
77288;BME280;66345;42.694;23.346;2024-01-30T10:07:56;97537.16;;;4.70;41.75
77288;BME280;66345;42.694;23.346;2024-01-30T10:10:23;97529.53;;;4.53;42.26
77288;BME280;66345;42.694;23.346;2024-01-30T10:12:51;97545.69;;;4.34;42.31
77288;BME280;66345;42.694;23.346;2024-01-30T10:15:20;97534.31;;;4.34;42.54
77288;BME280;66345;42.694;23.346;2024-01-30T10:17:45;97514.53;;;6.43;38.20
77288;BME280;66345;42.694;23.346;2024-01-30T10:20:12;97511.25;;;8.22;34.82
77288;BME280;66345;42.694;23.346;2024-01-30T10:22:37;97502.56;;;8.42;34.30
77288;BME280;66345;42.694;23.346;2024-01-30T10:25:04;97511.06;;;9.20;33.17
77288;BME280;66345;42.694;23.346;2024-01-30T10:27:30;97496.97;;;9.70;31.81
77288;BME280;66345;42.694;23.346;2024-01-30T10:29:57;97507.47;;;8.79;32.24
77288;BME280;66345;42.694;23.346;2024-01-30T10:32:23;97519.59;;;7.39;34.76
77288;BME280;66345;42.694;23.346;2024-01-30T10:34:49;97506.78;;;9.49;32.23
77288;BME280;66345;42.694;23.346;2024-01-30T10:37:15;97505.28;;;10.56;30.35
77288;BME280;66345;42.694;23.346;2024-01-30T10:39:42;97510.63;;;10.66;29.72
77288;BME280;66345;42.694;23.346;2024-01-30T10:42:17;97519.03;;;8.23;33.12
77288;BME280;66345;42.694;23.346;2024-01-30T10:47:30;97505.75;;;8.57;31.80
77288;BME280;66345;42.694;23.346;2024-01-30T10:49:56;97525.72;;;6.10;36.51
77288;BME280;66345;42.694;23.346;2024-01-30T10:52:25;97515.69;;;5.91;38.05
77288;BME280;66345;42.694;23.346;2024-01-30T10:54:52;97534.03;;;6.17;37.57
77288;BME280;66345;42.694;23.346;2024-01-30T10:57:18;97511.97;;;5.44;38.72
77288;BME280;66345;42.694;23.346;2024-01-30T10:59:44;97509.44;;;5.17;40.42
77288;BME280;66345;42.694;23.346;2024-01-30T11:02:11;97511.00;;;4.94;41.26
77288;BME280;66345;42.694;23.346;2024-01-30T11:04:43;97504.25;;;4.78;41.63
77288;BME280;66345;42.694;23.346;2024-01-30T11:07:23;97501.44;;;4.93;41.03
77288;BME280;66345;42.694;23.346;2024-01-30T11:12:16;97494.06;;;4.98;40.56
77288;BME280;66345;42.694;23.346;2024-01-30T11:14:42;97488.38;;;4.92;41.31
77288;BME280;66345;42.694;23.346;2024-01-30T11:17:10;97490.47;;;4.74;41.34
77288;BME280;66345;42.694;23.346;2024-01-30T11:19:37;97488.09;;;3.90;43.92
77288;BME280;66345;42.694;23.346;2024-01-30T11:22:06;97494.31;;;3.89;43.58
77288;BME280;66345;42.694;23.346;2024-01-30T11:24:40;97498.72;;;4.15;42.87
77288;BME280;66345;42.694;23.346;2024-01-30T11:27:09;97491.31;;;3.81;43.71
77288;BME280;66345;42.694;23.346;2024-01-30T11:29:37;97493.16;;;3.38;44.20
77288;BME280;66345;42.694;23.346;2024-01-30T11:32:06;97498.25;;;3.26;45.60
77288;BME280;66345;42.694;23.346;2024-01-30T11:34:40;97489.53;;;3.40;44.97
77288;BME280;66345;42.694;23.346;2024-01-30T11:37:09;97483.13;;;3.58;45.20
77288;BME280;66345;42.694;23.346;2024-01-30T11:39:37;97505.53;;;3.21;45.35
77288;BME280;66345;42.694;23.346;2024-01-30T11:42:03;97497.31;;;3.42;44.36
77288;BME280;66345;42.694;23.346;2024-01-30T11:44:30;97495.06;;;3.77;44.42
77288;BME280;66345;42.694;23.346;2024-01-30T11:46:56;97489.69;;;3.23;45.56
77288;BME280;66345;42.694;23.346;2024-01-30T11:49:23;97497.94;;;3.31;45.57
77288;BME280;66345;42.694;23.346;2024-01-30T11:51:48;97487.16;;;3.07;45.89
77288;BME280;66345;42.694;23.346;2024-01-30T11:54:15;97486.34;;;3.21;45.40
77288;BME280;66345;42.694;23.346;2024-01-30T11:56:42;97487.84;;;2.96;46.83
77288;BME280;66345;42.694;23.346;2024-01-30T11:59:07;97483.97;;;3.30;46.42
77288;BME280;66345;42.694;23.346;2024-01-30T12:01:33;97474.78;;;3.38;45.42
77288;BME280;66345;42.694;23.346;2024-01-30T12:03:59;97468.34;;;3.00;46.59
77288;BME280;66345;42.694;23.346;2024-01-30T12:06:24;97465.69;;;2.86;47.53
77288;BME280;66345;42.694;23.346;2024-01-30T12:09:01;97466.63;;;2.71;47.89
77288;BME280;66345;42.694;23.346;2024-01-30T12:11:29;97461.63;;;2.96;47.34
77288;BME280;66345;42.694;23.346;2024-01-30T12:13:55;97457.00;;;2.86;46.90
77288;BME280;66345;42.694;23.346;2024-01-30T12:16:21;97440.63;;;2.82;47.30
77288;BME280;66345;42.694;23.346;2024-01-30T12:18:47;97446.03;;;2.79;46.90
77288;BME280;66345;42.694;23.346;2024-01-30T12:21:16;97431.63;;;3.00;46.01
77288;BME280;66345;42.694;23.346;2024-01-30T12:23:42;97444.72;;;2.58;46.56
77288;BME280;66345;42.694;23.346;2024-01-30T12:26:08;97448.13;;;2.74;47.48
77288;BME280;66345;42.694;23.346;2024-01-30T12:28:36;97431.44;;;2.75;47.78
77288;BME280;66345;42.694;23.346;2024-01-30T12:31:05;97435.03;;;2.88;47.10
77288;BME280;66345;42.694;23.346;2024-01-30T12:33:31;97440.72;;;2.95;46.45
77288;BME280;66345;42.694;23.346;2024-01-30T12:35:57;97442.47;;;2.52;47.83
77288;BME280;66345;42.694;23.346;2024-01-30T12:38:24;97431.06;;;2.81;47.24
77288;BME280;66345;42.694;23.346;2024-01-30T12:40:54;97434.81;;;3.05;46.66
77288;BME280;66345;42.694;23.346;2024-01-30T12:43:21;97415.03;;;3.14;45.88
77288;BME280;66345;42.694;23.346;2024-01-30T12:45:47;97419.44;;;2.71;46.68
77288;BME280;66345;42.694;23.346;2024-01-30T12:48:12;97436.13;;;2.70;47.09
77288;BME280;66345;42.694;23.346;2024-01-30T12:50:38;97428.63;;;2.78;46.40
77288;BME280;66345;42.694;23.346;2024-01-30T12:53:03;97420.13;;;2.89;46.21
77288;BME280;66345;42.694;23.346;2024-01-30T12:55:30;97421.03;;;3.02;46.89
77288;BME280;66345;42.694;23.346;2024-01-30T12:57:55;97413.66;;;2.94;46.93
77288;BME280;66345;42.694;23.346;2024-01-30T13:00:21;97407.97;;;2.88;46.98
77288;BME280;66345;42.694;23.346;2024-01-30T13:02:48;97411.38;;;3.17;46.98
77288;BME280;66345;42.694;23.346;2024-01-30T13:05:13;97416.38;;;2.93;47.24
77288;BME280;66345;42.694;23.346;2024-01-30T13:07:39;97397.00;;;2.95;47.40
77288;BME280;66345;42.694;23.346;2024-01-30T13:10:08;97397.38;;;3.03;47.58
77288;BME280;66345;42.694;23.346;2024-01-30T13:12:33;97408.31;;;3.10;47.09
77288;BME280;66345;42.694;23.346;2024-01-30T13:14:59;97407.66;;;3.06;47.03
77288;BME280;66345;42.694;23.346;2024-01-30T13:17:27;97407.75;;;2.91;47.09
77288;BME280;66345;42.694;23.346;2024-01-30T13:19:52;97395.22;;;2.82;47.55
77288;BME280;66345;42.694;23.346;2024-01-30T13:22:19;97389.59;;;2.73;47.92
77288;BME280;66345;42.694;23.346;2024-01-30T13:24:47;97397.28;;;2.91;47.67
77288;BME280;66345;42.694;23.346;2024-01-30T13:27:12;97385.38;;;2.99;47.15
77288;BME280;66345;42.694;23.346;2024-01-30T13:29:38;97403.25;;;2.78;48.23
77288;BME280;66345;42.694;23.346;2024-01-30T13:32:04;97392.41;;;2.70;48.96